Time;durP1;ratioP1;P1;durP2;ratioP2;P2;SDS_P1;SDS_P2;PMS_P1;PMS_P2;Temp;Humidity;BMP_temperature;BMP_pressure;BME280_temperature;BME280_humidity;BME280_pressure;Samples;Min_cycle;Max_cycle;Signal;HPM_P1;HPM_P2
2021/11/16 00:00:10;;;;;;;40.80;29.20;;;7.20;99.90;;;;;;5078762;28;20458;-70
2021/11/16 00:02:36;;;;;;;37.80;30.60;;;7.30;99.90;;;;;;5073915;28;20482;-70
2021/11/16 00:05:04;;;;;;;38.60;29.90;;;7.30;99.90;;;;;;5075726;28;20831;-70
2021/11/16 00:07:31;;;;;;;36.53;31.23;;;7.40;99.90;;;;;;5081584;28;20460;-71
2021/11/16 00:09:58;;;;;;;33.97;30.27;;;7.40;99.90;;;;;;5079063;28;20463;-70
2021/11/16 00:12:25;;;;;;;34.93;29.40;;;7.40;99.90;;;;;;5078134;28;20450;-72
2021/11/16 00:14:53;;;;;;;40.83;31.20;;;7.40;99.90;;;;;;5075585;28;20510;-71
2021/11/16 00:17:21;;;;;;;32.53;28.30;;;7.30;99.90;;;;;;5078568;28;20447;-75
2021/11/16 00:19:50;;;;;;;36.93;30.47;;;7.20;99.90;;;;;;5080749;28;20474;-70
2021/11/16 00:22:18;;;;;;;39.90;30.87;;;7.30;99.90;;;;;;5072656;28;20595;-74
2021/11/16 00:24:56;;;;;;;37.27;29.60;;;7.30;99.90;;;;;;5070032;28;20459;-70
2021/11/16 00:27:23;;;;;;;38.30;30.97;;;7.30;99.90;;;;;;5072696;28;20819;-70
2021/11/16 00:29:50;;;;;;;40.03;30.97;;;7.30;99.90;;;;;;5074746;28;20823;-70
2021/11/16 00:32:17;;;;;;;38.40;29.43;;;7.10;99.90;;;;;;5077892;28;20469;-72
2021/11/16 00:34:45;;;;;;;40.73;30.70;;;7.10;99.90;;;;;;5077777;28;20456;-70
2021/11/16 00:37:12;;;;;;;38.77;31.87;;;7.00;99.90;;;;;;5080913;28;20458;-71
2021/11/16 00:39:39;;;;;;;40.07;30.70;;;7.00;99.90;;;;;;5078113;28;20463;-70
2021/11/16 00:42:07;;;;;;;39.83;31.67;;;7.00;99.90;;;;;;5074387;28;20471;-72
2021/11/16 00:44:34;;;;;;;40.30;31.17;;;7.00;99.90;;;;;;5079958;28;20447;-70
2021/11/16 00:47:01;;;;;;;42.67;30.73;;;6.90;99.90;;;;;;5082737;28;20467;-71
2021/11/16 00:49:28;;;;;;;38.07;30.50;;;6.90;99.90;;;;;;5081282;28;20541;-73
2021/11/16 00:51:56;;;;;;;42.80;30.47;;;7.00;99.90;;;;;;5082028;28;20992;-73
2021/11/16 00:54:23;;;;;;;39.13;31.40;;;6.90;99.90;;;;;;5080527;28;20478;-72
2021/11/16 00:56:50;;;;;;;42.33;30.23;;;7.00;99.90;;;;;;5078217;28;20896;-72
2021/11/16 00:59:17;;;;;;;40.17;31.33;;;7.00;99.90;;;;;;5073647;28;20519;-72
2021/11/16 01:01:45;;;;;;;38.90;32.00;;;6.90;99.90;;;;;;5072573;28;20806;-72
2021/11/16 01:04:12;;;;;;;41.10;31.73;;;6.80;99.90;;;;;;5073248;28;20524;-72
2021/11/16 01:06:39;;;;;;;41.77;31.53;;;6.90;99.90;;;;;;5076096;28;20464;-72
2021/11/16 01:09:07;;;;;;;39.50;29.70;;;7.00;99.90;;;;;;5074925;28;20462;-69
2021/11/16 01:11:34;;;;;;;40.70;31.97;;;7.00;99.90;;;;;;5074893;28;21026;-69
2021/11/16 01:14:01;;;;;;;34.67;29.77;;;6.80;99.90;;;;;;5077625;28;21150;-71
2021/11/16 01:16:28;;;;;;;38.03;30.60;;;6.80;99.90;;;;;;5072559;28;20470;-70
2021/11/16 01:18:56;;;;;;;46.00;30.70;;;6.70;99.90;;;;;;5077431;28;20466;-69
2021/11/16 01:21:23;;;;;;;41.53;32.20;;;6.60;99.90;;;;;;5075730;28;21109;-72
2021/11/16 01:23:50;;;;;;;42.10;33.30;;;6.60;99.90;;;;;;5075775;28;20854;-69
2021/11/16 01:26:18;;;;;;;45.53;34.27;;;6.60;99.90;;;;;;5079195;28;20458;-74
2021/11/16 01:28:45;;;;;;;44.30;33.07;;;6.70;99.90;;;;;;5075841;28;20514;-71
2021/11/16 01:31:14;;;;;;;40.30;30.87;;;6.80;99.90;;;;;;5079728;28;20459;-70
2021/11/16 01:33:42;;;;;;;38.93;32.20;;;6.90;99.90;;;;;;5083989;28;20458;-70
2021/11/16 01:36:10;;;;;;;42.13;31.00;;;7.00;99.90;;;;;;5079737;28;20466;-73
2021/11/16 01:38:37;;;;;;;40.77;31.77;;;6.90;99.90;;;;;;5077233;28;20467;-72
2021/11/16 01:41:05;;;;;;;41.07;32.53;;;6.90;99.90;;;;;;5075930;28;20464;-74
2021/11/16 01:43:33;;;;;;;40.90;32.30;;;6.70;99.90;;;;;;5074369;28;20576;-70
2021/11/16 01:46:03;;;;;;;40.07;32.10;;;6.80;99.90;;;;;;5081739;28;20483;-73
2021/11/16 01:48:32;;;;;;;39.00;32.33;;;6.80;99.90;;;;;;5086512;28;20473;-71
2021/11/16 01:51:00;;;;;;;45.60;33.50;;;6.80;99.90;;;;;;5083500;28;20461;-72
2021/11/16 01:53:27;;;;;;;44.10;32.50;;;6.80;99.90;;;;;;5079922;28;20459;-70
2021/11/16 01:55:54;;;;;;;37.70;32.20;;;6.70;99.90;;;;;;5080557;28;20514;-70
2021/11/16 01:58:21;;;;;;;52.00;32.70;;;6.80;99.90;;;;;;5082757;28;20465;-70
2021/11/16 02:00:49;;;;;;;43.23;33.47;;;6.90;99.90;;;;;;5081746;28;20958;-69
2021/11/16 02:03:16;;;;;;;38.37;30.67;;;6.90;99.90;;;;;;5079466;28;20582;-74
2021/11/16 02:05:45;;;;;;;46.30;31.70;;;7.00;99.90;;;;;;5078308;28;20463;-70
2021/11/16 02:08:13;;;;;;;42.57;33.07;;;7.00;99.90;;;;;;5084178;28;20454;-70
2021/11/16 02:10:42;;;;;;;41.00;32.83;;;7.10;99.90;;;;;;5083467;28;20462;-70
2021/11/16 02:13:09;;;;;;;41.87;32.07;;;7.00;99.90;;;;;;5082664;28;20542;-71
2021/11/16 02:15:38;;;;;;;40.73;33.90;;;7.10;99.90;;;;;;5081006;28;20462;-71
2021/11/16 02:18:08;;;;;;;39.27;32.20;;;7.10;99.90;;;;;;5081545;28;20454;-71
2021/11/16 02:20:38;;;;;;;37.47;31.97;;;7.10;99.90;;;;;;5081000;28;20481;-71
2021/11/16 02:23:06;;;;;;;43.27;35.57;;;7.10;99.90;;;;;;5075135;28;20490;-70
2021/11/16 02:25:33;;;;;;;38.47;31.73;;;7.10;99.90;;;;;;5079799;28;20464;-75
2021/11/16 02:28:00;;;;;;;38.13;32.47;;;7.20;99.90;;;;;;5078583;28;20494;-72
2021/11/16 02:30:28;;;;;;;42.40;33.50;;;7.20;99.90;;;;;;5082902;28;20462;-70
2021/11/16 02:32:55;;;;;;;40.07;32.97;;;7.20;99.90;;;;;;5082139;28;20460;-72
2021/11/16 02:35:25;;;;;;;40.70;33.20;;;7.30;99.90;;;;;;5082280;28;20472;-72
2021/11/16 02:37:54;;;;;;;40.73;33.33;;;7.30;99.90;;;;;;5081522;28;20907;-71
2021/11/16 02:40:21;;;;;;;37.97;32.80;;;7.40;99.90;;;;;;5074912;28;20498;-71
2021/11/16 02:42:48;;;;;;;40.70;32.87;;;7.50;99.90;;;;;;5075859;28;21060;-72
2021/11/16 02:45:18;;;;;;;40.57;36.10;;;7.30;99.90;;;;;;5078884;28;20458;-69
2021/11/16 02:47:46;;;;;;;42.40;33.60;;;7.20;99.90;;;;;;5078755;28;20453;-70
2021/11/16 02:50:13;;;;;;;45.60;34.83;;;7.20;99.90;;;;;;5088798;28;20484;-71
2021/11/16 02:52:40;;;;;;;51.17;35.07;;;7.20;99.90;;;;;;5078867;28;20462;-73
2021/11/16 02:55:10;;;;;;;45.20;35.33;;;7.20;99.90;;;;;;5080577;28;20876;-72
2021/11/16 02:57:38;;;;;;;41.30;32.33;;;7.30;99.90;;;;;;5078792;28;20466;-70
2021/11/16 03:00:07;;;;;;;43.93;35.17;;;7.30;99.90;;;;;;5074510;28;20464;-73
2021/11/16 03:02:34;;;;;;;41.50;32.20;;;7.30;99.90;;;;;;5082680;28;20450;-71
2021/11/16 03:05:01;;;;;;;46.43;35.10;;;7.30;99.90;;;;;;5080492;28;20857;-71
2021/11/16 03:07:33;;;;;;;42.83;33.00;;;7.20;99.90;;;;;;5079033;28;21245;-72
2021/11/16 03:10:01;;;;;;;42.47;33.73;;;7.10;99.90;;;;;;5077705;28;21021;-71
2021/11/16 03:12:31;;;;;;;42.80;35.33;;;7.10;99.90;;;;;;5080829;28;20512;-71
2021/11/16 03:14:58;;;;;;;42.43;34.53;;;7.10;99.90;;;;;;5072556;28;20462;-72
2021/11/16 03:17:27;;;;;;;48.00;36.20;;;7.10;99.90;;;;;;5082064;28;20463;-71
2021/11/16 03:19:54;;;;;;;46.10;36.17;;;7.10;99.90;;;;;;5078700;28;20461;-69
2021/11/16 03:22:23;;;;;;;45.13;38.17;;;7.00;99.90;;;;;;5079498;28;20878;-68
2021/11/16 03:24:50;;;;;;;48.77;38.40;;;7.10;99.90;;;;;;5084129;28;20478;-71
2021/11/16 03:27:19;;;;;;;47.17;37.60;;;7.20;99.90;;;;;;5080356;28;20454;-71
2021/11/16 03:29:48;;;;;;;44.27;36.80;;;7.30;99.90;;;;;;5079530;28;20558;-71
2021/11/16 03:32:18;;;;;;;48.90;39.33;;;7.30;99.90;;;;;;5080508;28;20482;-67
2021/11/16 03:34:47;;;;;;;50.60;39.27;;;7.30;99.90;;;;;;5080029;28;21023;-68
2021/11/16 03:37:15;;;;;;;47.70;39.10;;;7.30;99.90;;;;;;5082922;28;20462;-70
2021/11/16 03:39:42;;;;;;;51.40;38.83;;;7.20;99.90;;;;;;5077807;28;20968;-69
2021/11/16 03:42:09;;;;;;;45.40;37.90;;;7.10;99.90;;;;;;5078855;28;20463;-69
2021/11/16 03:44:38;;;;;;;46.63;37.70;;;7.10;99.90;;;;;;5076756;28;20486;-73
2021/11/16 03:47:07;;;;;;;52.40;39.67;;;7.00;99.90;;;;;;5083572;28;20826;-70
2021/11/16 03:49:34;;;;;;;47.73;39.07;;;7.00;99.90;;;;;;5078002;28;20457;-69
2021/11/16 03:52:01;;;;;;;51.67;39.50;;;7.00;99.90;;;;;;5076824;28;20483;-72
2021/11/16 03:54:28;;;;;;;44.57;39.60;;;7.00;99.90;;;;;;5082934;28;20537;-70
2021/11/16 03:57:00;;;;;;;47.37;40.93;;;7.10;99.90;;;;;;5081259;28;20540;-70
2021/11/16 03:59:28;;;;;;;50.07;41.10;;;7.10;99.90;;;;;;5081132;28;20489;-69
2021/11/16 04:01:55;;;;;;;45.10;39.80;;;7.10;99.90;;;;;;5086122;28;20474;-70
2021/11/16 04:04:25;;;;;;;52.23;42.67;;;7.10;99.90;;;;;;5075184;28;20490;-69
2021/11/16 04:06:52;;;;;;;56.13;42.17;;;7.00;99.90;;;;;;5077236;28;20558;-69
2021/11/16 04:09:20;;;;;;;54.47;42.33;;;7.00;99.90;;;;;;5080856;28;20455;-69
2021/11/16 04:11:47;;;;;;;57.40;43.33;;;7.00;99.90;;;;;;5074241;28;20457;-69
2021/11/16 04:14:14;;;;;;;51.00;41.93;;;7.00;99.90;;;;;;5080955;28;20459;-69
2021/11/16 04:16:40;;;;;;;51.67;41.70;;;7.00;99.90;;;;;;5077392;28;20824;-72
2021/11/16 04:19:07;;;;;;;58.00;41.70;;;7.00;99.90;;;;;;5073677;28;20480;-69
2021/11/16 04:21:36;;;;;;;61.00;42.33;;;6.90;99.90;;;;;;5081015;28;20462;-70
2021/11/16 04:24:03;;;;;;;61.83;46.77;;;6.80;99.90;;;;;;5078533;28;21206;-69
2021/11/16 04:26:30;;;;;;;57.27;44.97;;;6.80;99.90;;;;;;5079787;28;20461;-71
2021/11/16 04:28:57;;;;;;;51.87;43.67;;;6.90;99.90;;;;;;5070646;28;20487;-72
2021/11/16 04:31:24;;;;;;;60.07;44.20;;;6.90;99.90;;;;;;5073503;28;20680;-70
2021/11/16 04:33:51;;;;;;;63.03;43.77;;;6.80;99.90;;;;;;5071074;28;20472;-72
2021/11/16 04:36:18;;;;;;;49.20;42.43;;;6.70;99.90;;;;;;5077187;28;20465;-69
2021/11/16 04:38:47;;;;;;;54.50;44.57;;;6.80;99.90;;;;;;5078267;28;20530;-70
2021/11/16 04:41:14;;;;;;;53.53;43.07;;;6.80;99.90;;;;;;5075716;28;20473;-72
2021/11/16 04:43:41;;;;;;;56.27;45.53;;;6.80;99.90;;;;;;5075037;28;20515;-69
2021/11/16 04:46:08;;;;;;;57.57;45.10;;;6.80;99.90;;;;;;5079347;28;20467;-69
2021/11/16 04:48:53;;;;;;;53.20;44.00;;;6.80;99.90;;;;;;5075278;28;20520;-70
2021/11/16 04:51:43;;;;;;;54.97;44.70;;;6.80;99.90;;;;;;5079865;28;20470;-69
2021/11/16 04:54:21;;;;;;;60.30;44.83;;;6.80;99.90;;;;;;5080280;28;20462;-72
2021/11/16 04:59:41;;;;;;;60.10;46.77;;;6.70;99.90;;;;;;5081969;28;20970;-70
2021/11/16 05:04:53;;;;;;;60.87;48.03;;;6.70;99.90;;;;;;5072254;28;20485;-72
2021/11/16 05:07:21;;;;;;;57.33;44.47;;;6.70;99.90;;;;;;5074690;28;20465;-69
2021/11/16 05:09:52;;;;;;;66.90;46.50;;;6.60;99.90;;;;;;5078676;28;21340;-72
2021/11/16 05:12:20;;;;;;;63.03;46.27;;;6.60;99.90;;;;;;5079056;28;20551;-71
2021/11/16 05:14:47;;;;;;;55.90;45.70;;;6.70;99.90;;;;;;5079611;28;20462;-69
2021/11/16 05:17:14;;;;;;;60.87;45.77;;;6.70;99.90;;;;;;5073531;28;20561;-69
2021/11/16 05:19:41;;;;;;;60.63;46.20;;;6.70;99.90;;;;;;5075406;28;20459;-69
2021/11/16 05:22:08;;;;;;;58.03;44.80;;;6.80;99.90;;;;;;5076312;28;20479;-72
2021/11/16 05:24:35;;;;;;;60.17;47.63;;;6.70;99.90;;;;;;5069354;28;20828;-70
2021/11/16 05:27:05;;;;;;;72.73;46.30;;;6.80;99.90;;;;;;5083131;28;20472;-72
2021/11/16 05:29:31;;;;;;;60.00;47.20;;;6.70;99.90;;;;;;5075462;28;20492;-69
2021/11/16 05:31:58;;;;;;;58.77;46.10;;;6.70;99.90;;;;;;5078568;28;20893;-69
2021/11/16 05:34:25;;;;;;;54.00;45.70;;;6.60;99.90;;;;;;5073605;28;20466;-69
2021/11/16 05:36:52;;;;;;;56.87;45.17;;;6.70;99.90;;;;;;5073687;28;21040;-70
2021/11/16 05:39:19;;;;;;;59.43;46.87;;;6.70;99.90;;;;;;5077542;28;20470;-70
2021/11/16 05:41:47;;;;;;;56.10;46.13;;;6.70;99.90;;;;;;5076457;28;20458;-69
2021/11/16 05:44:16;;;;;;;66.30;46.07;;;6.70;99.90;;;;;;5074742;28;20485;-72
2021/11/16 05:46:43;;;;;;;65.23;47.47;;;6.70;99.90;;;;;;5076231;28;20478;-72
2021/11/16 05:49:10;;;;;;;61.53;47.50;;;6.80;99.90;;;;;;5079378;28;20469;-69
2021/11/16 05:51:37;;;;;;;62.70;46.50;;;6.70;99.90;;;;;;5074805;28;20460;-71
2021/11/16 05:54:06;;;;;;;65.17;47.83;;;6.70;99.90;;;;;;5075552;28;20831;-71
2021/11/16 05:56:37;;;;;;;67.60;48.00;;;6.70;99.90;;;;;;5077985;28;20462;-70
2021/11/16 05:59:05;;;;;;;59.30;46.37;;;6.60;99.90;;;;;;5076383;28;20498;-71
2021/11/16 06:01:35;;;;;;;60.10;45.20;;;6.60;99.90;;;;;;5072501;28;20568;-70
2021/11/16 06:04:03;;;;;;;77.23;47.40;;;6.60;99.90;;;;;;5077245;28;20495;-73
2021/11/16 06:06:31;;;;;;;59.17;45.90;;;6.60;99.90;;;;;;5078826;28;20538;-71
2021/11/16 06:09:03;;;;;;;71.20;46.83;;;6.60;99.90;;;;;;5077988;28;20462;-72
2021/11/16 06:11:30;;;;;;;54.00;45.33;;;6.50;99.90;;;;;;5075054;28;20468;-70
2021/11/16 06:13:58;;;;;;;61.37;45.70;;;6.40;99.90;;;;;;5075165;28;20557;-70
2021/11/16 06:16:26;;;;;;;65.30;47.07;;;6.40;99.90;;;;;;5075426;28;21009;-70
2021/11/16 06:19:00;;;;;;;63.90;47.00;;;6.50;99.90;;;;;;5072026;28;20498;-72
2021/11/16 06:21:29;;;;;;;57.23;45.57;;;6.50;99.90;;;;;;5074060;28;20830;-75
2021/11/16 06:23:57;;;;;;;56.30;44.23;;;6.50;99.90;;;;;;5081040;28;20550;-74
2021/11/16 06:26:25;;;;;;;66.23;46.37;;;6.50;99.90;;;;;;5072052;28;20475;-71
2021/11/16 06:28:52;;;;;;;68.20;48.20;;;6.60;99.90;;;;;;5072011;28;20475;-71
2021/11/16 06:31:20;;;;;;;72.30;47.67;;;6.50;99.90;;;;;;5078571;28;20460;-71
2021/11/16 06:33:48;;;;;;;63.10;45.90;;;6.50;99.90;;;;;;5081256;28;20527;-71
2021/11/16 06:36:16;;;;;;;66.10;44.70;;;6.60;99.90;;;;;;5081751;28;20457;-74
2021/11/16 06:38:43;;;;;;;70.43;46.00;;;6.60;99.90;;;;;;5076815;28;20508;-74
2021/11/16 06:41:10;;;;;;;66.90;48.67;;;6.50;99.90;;;;;;5081150;28;20469;-72
2021/11/16 06:43:38;;;;;;;61.60;46.10;;;6.60;99.90;;;;;;5074886;28;20503;-70
2021/11/16 06:46:05;;;;;;;71.00;46.47;;;6.40;99.90;;;;;;5078983;28;20470;-71
2021/11/16 06:48:33;;;;;;;59.30;47.33;;;6.40;99.90;;;;;;5079619;28;20470;-71
2021/11/16 06:51:01;;;;;;;70.07;48.17;;;6.50;99.90;;;;;;5083911;28;20462;-72
2021/11/16 06:53:31;;;;;;;58.20;45.80;;;6.50;99.90;;;;;;5086584;28;20462;-71
2021/11/16 06:56:00;;;;;;;65.60;49.47;;;6.40;99.90;;;;;;5077070;28;20465;-70
2021/11/16 06:58:27;;;;;;;63.20;49.00;;;6.40;99.90;;;;;;5078724;28;20459;-71
2021/11/16 07:00:55;;;;;;;64.10;48.57;;;6.30;99.90;;;;;;5076397;28;20513;-73
2021/11/16 07:03:25;;;;;;;78.67;48.20;;;6.30;99.90;;;;;;5075318;28;20463;-73
2021/11/16 07:05:56;;;;;;;59.03;47.00;;;6.30;99.90;;;;;;5072719;28;20984;-72
2021/11/16 07:08:32;;;;;;;67.73;50.50;;;6.30;99.90;;;;;;5089809;28;20458;-73
2021/11/16 07:11:11;;;;;;;64.57;48.10;;;6.30;99.90;;;;;;5083730;28;21159;-70
2021/11/16 07:13:53;;;;;;;63.23;48.40;;;6.30;99.90;;;;;;5072002;28;20536;-71
2021/11/16 07:16:21;;;;;;;69.00;47.97;;;6.30;99.90;;;;;;5082869;28;20798;-70
2021/11/16 07:18:50;;;;;;;70.97;49.20;;;6.30;99.90;;;;;;5077732;28;20469;-70
2021/11/16 07:21:18;;;;;;;78.30;49.97;;;6.40;99.90;;;;;;5078456;28;20458;-70
2021/11/16 07:23:47;;;;;;;72.67;52.50;;;6.40;99.90;;;;;;5075744;28;20458;-71
2021/11/16 07:26:16;;;;;;;76.33;52.70;;;6.40;99.90;;;;;;5081395;28;20684;-71
2021/11/16 07:28:48;;;;;;;75.73;51.20;;;6.40;99.90;;;;;;5073017;28;20483;-70
2021/11/16 07:31:20;;;;;;;68.00;49.67;;;6.40;99.90;;;;;;5077206;28;20531;-70
2021/11/16 07:33:49;;;;;;;73.97;51.57;;;6.40;99.90;;;;;;5077665;28;20464;-70
2021/11/16 07:36:18;;;;;;;73.73;53.40;;;6.40;99.90;;;;;;5072273;28;20833;-70
2021/11/16 07:38:51;;;;;;;82.43;53.63;;;6.40;99.90;;;;;;5077121;28;20457;-71
2021/11/16 07:41:23;;;;;;;64.00;49.07;;;6.20;99.90;;;;;;5075600;28;20536;-73
2021/11/16 07:43:51;;;;;;;72.60;47.80;;;6.30;99.90;;;;;;5072953;28;20488;-70
2021/11/16 07:46:18;;;;;;;75.20;50.17;;;6.30;99.90;;;;;;5071810;28;20864;-71
2021/11/16 07:48:45;;;;;;;77.87;52.47;;;6.30;99.90;;;;;;5078154;28;20465;-71
2021/11/16 07:51:13;;;;;;;72.50;48.97;;;6.30;99.90;;;;;;5078760;28;20457;-70
2021/11/16 07:53:43;;;;;;;75.87;50.37;;;6.30;99.90;;;;;;5074757;28;20490;-72
2021/11/16 07:56:14;;;;;;;82.17;50.40;;;6.30;99.90;;;;;;5076979;28;20484;-70
2021/11/16 07:58:43;;;;;;;70.27;50.00;;;6.30;99.90;;;;;;5075304;28;20461;-71
2021/11/16 08:01:15;;;;;;;75.70;51.40;;;6.40;99.90;;;;;;5077378;28;20451;-71
2021/11/16 08:03:48;;;;;;;73.33;51.60;;;6.40;99.90;;;;;;5075831;28;20560;-73
2021/11/16 08:06:21;;;;;;;76.80;52.70;;;6.40;99.90;;;;;;5080835;28;20474;-70
2021/11/16 08:09:06;;;;;;;67.80;50.63;;;6.30;99.90;;;;;;5075810;28;20469;-72
2021/11/16 08:11:37;;;;;;;74.27;52.40;;;6.30;99.90;;;;;;5076022;28;21031;-71
2021/11/16 08:14:07;;;;;;;68.07;50.73;;;6.30;99.90;;;;;;5072773;28;20960;-73
2021/11/16 08:16:36;;;;;;;76.93;54.03;;;6.30;99.90;;;;;;5079861;28;20812;-71
2021/11/16 08:19:08;;;;;;;78.90;50.40;;;6.30;99.90;;;;;;5070031;28;20465;-69
2021/11/16 08:21:37;;;;;;;75.23;49.93;;;6.40;99.90;;;;;;5082028;28;22383;-71
2021/11/16 08:24:08;;;;;;;72.43;51.57;;;6.50;99.90;;;;;;5074997;28;20455;-71
2021/11/16 08:26:38;;;;;;;73.87;49.70;;;6.50;99.90;;;;;;5074703;28;20930;-71
2021/11/16 08:29:08;;;;;;;77.43;50.93;;;6.60;99.90;;;;;;5078273;28;20482;-71
2021/11/16 08:31:42;;;;;;;76.80;52.37;;;6.60;99.90;;;;;;5073626;28;20451;-71
2021/11/16 08:34:11;;;;;;;86.40;52.60;;;6.70;99.90;;;;;;5069575;28;20512;-70
2021/11/16 08:36:48;;;;;;;76.67;51.30;;;6.70;99.90;;;;;;5075421;28;20980;-71
2021/11/16 08:39:16;;;;;;;84.33;54.40;;;6.70;99.90;;;;;;5075475;28;20457;-72
2021/11/16 08:41:45;;;;;;;78.50;51.13;;;6.80;99.90;;;;;;5074276;28;20467;-72
2021/11/16 08:44:16;;;;;;;71.30;49.73;;;6.70;99.90;;;;;;5073158;28;21123;-71
2021/11/16 08:46:46;;;;;;;74.93;50.80;;;6.80;99.90;;;;;;5075957;28;20463;-71
2021/11/16 08:49:31;;;;;;;82.27;50.50;;;7.00;99.90;;;;;;5087551;28;20453;-71
2021/11/16 08:52:01;;;;;;;73.23;49.07;;;6.90;99.90;;;;;;5071286;28;20460;-70
2021/11/16 08:54:31;;;;;;;68.13;50.63;;;6.90;99.90;;;;;;5079604;28;20572;-71
2021/11/16 08:57:00;;;;;;;72.50;48.37;;;7.00;99.90;;;;;;5077928;28;20470;-70
2021/11/16 08:59:27;;;;;;;78.13;48.03;;;7.10;99.90;;;;;;5079090;28;20554;-72
2021/11/16 09:02:01;;;;;;;67.57;46.40;;;7.20;99.90;;;;;;5075581;28;20472;-71
2021/11/16 09:04:30;;;;;;;66.30;46.60;;;7.20;99.90;;;;;;5070884;28;20470;-74
2021/11/16 09:06:58;;;;;;;72.73;47.70;;;7.00;99.90;;;;;;5077947;28;20952;-71
2021/11/16 09:09:27;;;;;;;71.97;47.43;;;6.90;99.90;;;;;;5076280;28;20474;-74
2021/11/16 09:12:01;;;;;;;78.77;47.70;;;7.00;99.90;;;;;;5074987;28;20965;-71
2021/11/16 09:14:29;;;;;;;72.20;48.33;;;7.00;99.90;;;;;;5078231;28;20551;-71
2021/11/16 09:16:56;;;;;;;82.33;50.10;;;7.10;99.90;;;;;;5079568;28;20470;-71
2021/11/16 09:19:26;;;;;;;71.97;47.87;;;7.10;99.90;;;;;;5078183;28;20469;-70
2021/11/16 09:21:53;;;;;;;76.67;47.57;;;7.10;99.90;;;;;;5074987;28;20458;-70
2021/11/16 09:24:21;;;;;;;82.03;48.30;;;7.10;99.90;;;;;;5069831;28;20928;-73
2021/11/16 09:27:10;;;;;;;73.17;48.53;;;7.00;99.90;;;;;;5075355;28;20861;-70
2021/11/16 09:29:40;;;;;;;68.93;46.53;;;7.10;99.90;;;;;;5075662;28;20491;-70
2021/11/16 09:32:10;;;;;;;70.50;46.40;;;7.20;99.90;;;;;;5076683;28;20470;-72
2021/11/16 09:34:40;;;;;;;71.97;47.33;;;7.20;99.90;;;;;;5075012;28;20465;-71
2021/11/16 09:37:09;;;;;;;68.60;47.90;;;7.20;99.90;;;;;;5080446;28;20546;-72
2021/11/16 09:39:41;;;;;;;72.97;47.93;;;7.10;99.90;;;;;;5074200;28;20463;-72
2021/11/16 09:42:11;;;;;;;70.83;48.63;;;7.10;99.90;;;;;;5077375;28;20455;-74
2021/11/16 09:44:43;;;;;;;68.80;45.83;;;7.20;99.90;;;;;;5077240;28;20462;-71
2021/11/16 09:47:15;;;;;;;71.30;46.60;;;7.30;99.90;;;;;;5083528;28;20753;-70
2021/11/16 09:49:45;;;;;;;70.63;46.27;;;7.40;99.90;;;;;;5075483;28;20474;-72
2021/11/16 09:52:14;;;;;;;62.80;44.80;;;7.50;99.90;;;;;;5075124;28;20509;-70
2021/11/16 09:54:54;;;;;;;73.97;48.20;;;7.50;99.90;;;;;;5076296;28;20475;-72
2021/11/16 09:57:24;;;;;;;76.90;47.37;;;7.50;99.90;;;;;;5076794;28;20470;-69
2021/11/16 10:00:00;;;;;;;76.00;49.43;;;7.60;99.90;;;;;;5077026;28;20554;-73
2021/11/16 10:02:30;;;;;;;71.57;48.57;;;7.60;99.90;;;;;;5069715;28;20472;-72
2021/11/16 10:05:02;;;;;;;80.93;50.17;;;7.50;99.90;;;;;;5069537;28;20543;-71
2021/11/16 10:07:29;;;;;;;80.97;49.63;;;7.60;99.90;;;;;;5083633;28;20464;-71
2021/11/16 10:09:56;;;;;;;77.13;48.90;;;7.60;99.90;;;;;;5085006;28;20486;-74
2021/11/16 10:12:24;;;;;;;82.43;49.37;;;7.70;99.90;;;;;;5076539;28;20459;-71
2021/11/16 10:14:54;;;;;;;75.00;50.57;;;7.80;99.90;;;;;;5073881;28;20464;-71
2021/11/16 10:17:21;;;;;;;82.30;48.23;;;7.80;99.90;;;;;;5079763;28;20481;-71
2021/11/16 10:19:48;;;;;;;79.23;50.03;;;7.90;99.90;;;;;;5085823;28;20979;-71
2021/11/16 10:22:16;;;;;;;77.20;50.33;;;8.00;99.90;;;;;;5079259;28;20465;-73
2021/11/16 10:24:46;;;;;;;79.40;48.57;;;7.80;99.90;;;;;;5076074;28;20828;-70
2021/11/16 10:27:34;;;;;;;90.40;48.33;;;7.90;99.90;;;;;;5079347;28;20465;-70
2021/11/16 10:30:13;;;;;;;65.33;45.80;;;8.00;99.90;;;;;;5077789;28;20550;-71
2021/11/16 10:32:41;;;;;;;76.10;47.10;;;7.90;99.90;;;;;;5079283;28;20520;-71
2021/11/16 10:35:11;;;;;;;66.30;44.50;;;7.80;99.90;;;;;;5071062;28;20925;-71
2021/11/16 10:37:50;;;;;;;72.30;46.30;;;7.90;99.90;;;;;;5080290;28;20513;-73
2021/11/16 10:40:19;;;;;;;68.03;47.13;;;7.90;99.90;;;;;;5076245;28;21029;-74
2021/11/16 10:42:48;;;;;;;69.43;44.13;;;7.90;99.90;;;;;;5076223;28;21289;-71
2021/11/16 10:45:21;;;;;;;67.37;44.40;;;7.90;99.90;;;;;;5081155;28;20491;-71
2021/11/16 10:47:49;;;;;;;68.80;45.53;;;7.80;99.90;;;;;;5071781;28;21088;-71
2021/11/16 10:50:18;;;;;;;69.70;46.07;;;7.80;99.90;;;;;;5080772;28;21046;-72
2021/11/16 10:53:01;;;;;;;67.03;43.40;;;8.00;99.90;;;;;;5075291;28;20479;-71
2021/11/16 10:55:39;;;;;;;75.40;48.30;;;8.10;99.90;;;;;;5071018;28;20462;-71
2021/11/16 10:58:08;;;;;;;67.37;43.23;;;8.10;99.90;;;;;;5069681;28;20472;-70
2021/11/16 11:00:40;;;;;;;70.00;46.80;;;8.10;99.90;;;;;;5074473;28;20491;-71
2021/11/16 11:03:25;;;;;;;73.73;45.73;;;8.20;99.90;;;;;;5075926;28;20460;-72
2021/11/16 11:06:06;;;;;;;63.03;43.80;;;8.20;99.90;;;;;;5073257;28;20491;-71
2021/11/16 11:08:46;;;;;;;64.37;44.60;;;8.20;99.90;;;;;;5080790;28;20452;-73
2021/11/16 11:11:25;;;;;;;66.87;45.97;;;8.30;99.90;;;;;;5079150;28;20541;-70
2021/11/16 11:14:04;;;;;;;71.20;44.70;;;8.30;99.90;;;;;;5075361;28;20453;-73
2021/11/16 11:16:35;;;;;;;59.40;43.47;;;8.30;99.90;;;;;;5076424;28;20570;-71
2021/11/16 11:19:04;;;;;;;69.13;43.43;;;8.20;99.90;;;;;;5073789;28;20469;-72
2021/11/16 11:21:38;;;;;;;63.20;43.03;;;8.30;99.90;;;;;;5074340;28;20820;-71
2021/11/16 11:24:19;;;;;;;69.87;44.30;;;8.30;99.90;;;;;;5076584;28;20899;-72
2021/11/16 11:26:49;;;;;;;61.90;44.80;;;8.20;99.90;;;;;;5073332;28;20482;-71
2021/11/16 11:29:29;;;;;;;61.63;42.33;;;8.20;99.90;;;;;;5072810;28;20478;-71
2021/11/16 11:32:06;;;;;;;69.10;42.30;;;7.90;99.90;;;;;;5077325;28;20454;-71
2021/11/16 11:34:40;;;;;;;65.73;43.23;;;7.80;99.90;;;;;;5072769;28;20462;-70
2021/11/16 11:37:11;;;;;;;64.90;43.40;;;7.90;99.90;;;;;;5075704;28;20473;-73
2021/11/16 11:39:39;;;;;;;61.07;42.03;;;7.80;99.90;;;;;;5074525;28;20516;-71
2021/11/16 11:42:12;;;;;;;67.80;44.00;;;7.80;99.90;;;;;;5078809;28;20463;-73
2021/11/16 11:44:45;;;;;;;58.67;42.27;;;7.80;99.90;;;;;;5078754;28;20492;-71
2021/11/16 11:47:27;;;;;;;62.23;43.23;;;7.80;99.90;;;;;;5079888;28;20505;-72
2021/11/16 11:49:56;;;;;;;73.57;44.93;;;7.80;99.90;;;;;;5076646;28;20458;-71
2021/11/16 11:52:23;;;;;;;67.67;42.80;;;7.70;99.90;;;;;;5071949;28;20461;-71
2021/11/16 11:54:51;;;;;;;60.33;40.80;;;7.70;99.90;;;;;;5077278;28;20460;-74
2021/11/16 11:57:19;;;;;;;69.10;42.77;;;7.90;99.90;;;;;;5070579;28;20455;-71
2021/11/16 11:59:47;;;;;;;61.60;40.47;;;8.00;99.90;;;;;;5072713;28;20464;-71
2021/11/16 12:02:18;;;;;;;56.87;39.77;;;7.70;99.90;;;;;;5069337;28;20891;-71
2021/11/16 12:04:46;;;;;;;50.13;38.93;;;7.50;99.90;;;;;;5072230;28;20460;-73
2021/11/16 12:07:14;;;;;;;65.43;39.73;;;7.60;99.90;;;;;;5081465;28;20498;-71
2021/11/16 12:09:43;;;;;;;61.20;40.03;;;7.70;99.90;;;;;;5071595;28;20466;-73
2021/11/16 12:12:10;;;;;;;57.57;39.40;;;7.60;99.90;;;;;;5071692;28;20459;-71
2021/11/16 12:14:45;;;;;;;51.60;40.00;;;7.50;99.90;;;;;;5078545;28;20466;-71
2021/11/16 12:17:13;;;;;;;54.37;38.50;;;7.70;99.90;;;;;;5075005;28;20870;-71
2021/11/16 12:19:48;;;;;;;58.60;40.00;;;7.80;99.90;;;;;;5075533;28;20808;-71
2021/11/16 12:22:23;;;;;;;55.23;41.40;;;7.90;99.90;;;;;;5076989;28;20471;-71
2021/11/16 12:24:51;;;;;;;59.87;41.63;;;7.80;99.90;;;;;;5072252;28;20515;-72
2021/11/16 12:27:21;;;;;;;59.67;42.80;;;7.80;99.90;;;;;;5071346;28;20518;-71
2021/11/16 12:29:51;;;;;;;60.07;41.80;;;7.90;99.90;;;;;;5072882;28;20459;-70
2021/11/16 12:32:22;;;;;;;61.07;42.70;;;8.00;99.90;;;;;;5073137;28;20535;-71
2021/11/16 12:34:54;;;;;;;51.47;38.20;;;7.90;99.90;;;;;;5076923;28;20465;-71
2021/11/16 12:37:44;;;;;;;58.17;39.70;;;7.80;99.90;;;;;;5074989;28;20458;-73
2021/11/16 12:40:37;;;;;;;54.90;39.10;;;7.90;99.90;;;;;;5069912;28;20514;-72
2021/11/16 12:43:20;;;;;;;52.97;40.43;;;8.00;99.90;;;;;;5070484;28;20488;-71
2021/11/16 12:45:49;;;;;;;65.30;38.47;;;8.10;99.90;;;;;;5078954;28;20529;-71
2021/11/16 12:48:19;;;;;;;58.27;40.37;;;8.00;99.90;;;;;;5076044;28;20693;-72
2021/11/16 12:51:10;;;;;;;54.30;38.47;;;7.90;99.90;;;;;;5073649;28;20971;-71
2021/11/16 12:53:58;;;;;;;58.50;38.80;;;7.80;99.90;;;;;;5081265;28;20471;-72